sensor_id;sensor_type;location;lat;lon;timestamp;P1;durP1;ratioP1;P2;durP2;ratioP2
4049;SDS011;2039;50.894;6.888;2022-08-18T00:02:17;82.50;;;16.87;;
4049;SDS011;2039;50.894;6.888;2022-08-18T00:04:47;78.70;;;16.30;;
4049;SDS011;2039;50.894;6.888;2022-08-18T00:07:14;78.70;;;17.20;;
4049;SDS011;2039;50.894;6.888;2022-08-18T00:09:42;79.80;;;17.57;;
4049;SDS011;2039;50.894;6.888;2022-08-18T00:12:13;82.87;;;17.37;;
4049;SDS011;2039;50.894;6.888;2022-08-18T00:14:44;80.50;;;18.57;;
4049;SDS011;2039;50.894;6.888;2022-08-18T00:17:11;78.60;;;16.50;;
4049;SDS011;2039;50.894;6.888;2022-08-18T00:19:37;76.20;;;16.90;;
4049;SDS011;2039;50.894;6.888;2022-08-18T00:22:03;77.97;;;17.70;;
4049;SDS011;2039;50.894;6.888;2022-08-18T00:24:29;79.43;;;16.60;;
4049;SDS011;2039;50.894;6.888;2022-08-18T00:29:23;80.13;;;16.37;;
4049;SDS011;2039;50.894;6.888;2022-08-18T00:31:49;78.80;;;17.77;;
4049;SDS011;2039;50.894;6.888;2022-08-18T00:34:15;77.13;;;17.10;;
4049;SDS011;2039;50.894;6.888;2022-08-18T00:36:41;79.20;;;18.10;;
4049;SDS011;2039;50.894;6.888;2022-08-18T00:39:07;80.30;;;17.30;;
4049;SDS011;2039;50.894;6.888;2022-08-18T00:41:34;78.00;;;16.33;;
4049;SDS011;2039;50.894;6.888;2022-08-18T00:43:59;79.43;;;18.10;;
4049;SDS011;2039;50.894;6.888;2022-08-18T00:46:31;80.97;;;15.50;;
4049;SDS011;2039;50.894;6.888;2022-08-18T00:48:59;78.77;;;17.00;;
4049;SDS011;2039;50.894;6.888;2022-08-18T00:51:30;81.03;;;17.30;;
4049;SDS011;2039;50.894;6.888;2022-08-18T00:54:13;78.40;;;16.90;;
4049;SDS011;2039;50.894;6.888;2022-08-18T00:56:47;82.37;;;17.47;;
4049;SDS011;2039;50.894;6.888;2022-08-18T01:01:48;79.60;;;18.40;;
4049;SDS011;2039;50.894;6.888;2022-08-18T01:04:16;79.40;;;18.13;;
4049;SDS011;2039;50.894;6.888;2022-08-18T01:06:51;79.23;;;17.67;;
4049;SDS011;2039;50.894;6.888;2022-08-18T01:09:21;81.67;;;18.27;;
4049;SDS011;2039;50.894;6.888;2022-08-18T01:11:47;77.87;;;18.87;;
4049;SDS011;2039;50.894;6.888;2022-08-18T01:14:15;83.97;;;21.87;;
4049;SDS011;2039;50.894;6.888;2022-08-18T01:16:42;87.77;;;24.60;;
4049;SDS011;2039;50.894;6.888;2022-08-18T01:19:28;83.10;;;22.30;;
4049;SDS011;2039;50.894;6.888;2022-08-18T01:25:16;85.37;;;27.27;;
4049;SDS011;2039;50.894;6.888;2022-08-18T01:28:03;84.83;;;32.47;;
4049;SDS011;2039;50.894;6.888;2022-08-18T01:30:31;95.17;;;38.23;;
4049;SDS011;2039;50.894;6.888;2022-08-18T01:33:08;91.67;;;39.70;;
4049;SDS011;2039;50.894;6.888;2022-08-18T01:35:36;89.90;;;43.17;;
4049;SDS011;2039;50.894;6.888;2022-08-18T01:38:06;90.57;;;40.90;;
4049;SDS011;2039;50.894;6.888;2022-08-18T01:40:32;91.23;;;41.30;;
4049;SDS011;2039;50.894;6.888;2022-08-18T01:42:58;93.67;;;38.07;;
4049;SDS011;2039;50.894;6.888;2022-08-18T01:45:27;93.10;;;42.13;;
4049;SDS011;2039;50.894;6.888;2022-08-18T01:47:53;91.37;;;39.97;;
4049;SDS011;2039;50.894;6.888;2022-08-18T01:50:19;87.37;;;36.10;;
4049;SDS011;2039;50.894;6.888;2022-08-18T01:52:45;92.60;;;43.70;;
4049;SDS011;2039;50.894;6.888;2022-08-18T01:55:11;89.27;;;41.30;;
4049;SDS011;2039;50.894;6.888;2022-08-18T01:57:37;92.33;;;40.60;;
4049;SDS011;2039;50.894;6.888;2022-08-18T02:00:07;97.20;;;43.93;;
4049;SDS011;2039;50.894;6.888;2022-08-18T02:02:34;91.20;;;44.80;;
4049;SDS011;2039;50.894;6.888;2022-08-18T02:05:02;94.80;;;45.10;;
4049;SDS011;2039;50.894;6.888;2022-08-18T02:07:34;92.97;;;45.80;;
4049;SDS011;2039;50.894;6.888;2022-08-18T02:10:04;94.53;;;45.37;;
4049;SDS011;2039;50.894;6.888;2022-08-18T02:12:31;92.27;;;43.53;;
4049;SDS011;2039;50.894;6.888;2022-08-18T02:14:57;92.37;;;42.47;;
4049;SDS011;2039;50.894;6.888;2022-08-18T02:17:23;91.77;;;41.20;;
4049;SDS011;2039;50.894;6.888;2022-08-18T02:19:49;99.10;;;44.17;;
4049;SDS011;2039;50.894;6.888;2022-08-18T02:22:16;92.40;;;44.57;;
4049;SDS011;2039;50.894;6.888;2022-08-18T02:24:43;96.13;;;46.00;;
4049;SDS011;2039;50.894;6.888;2022-08-18T02:27:09;94.97;;;42.30;;
4049;SDS011;2039;50.894;6.888;2022-08-18T02:29:37;99.67;;;50.30;;
4049;SDS011;2039;50.894;6.888;2022-08-18T02:32:04;96.87;;;49.07;;
4049;SDS011;2039;50.894;6.888;2022-08-18T02:34:30;94.07;;;45.37;;
4049;SDS011;2039;50.894;6.888;2022-08-18T02:36:57;97.43;;;44.83;;
4049;SDS011;2039;50.894;6.888;2022-08-18T02:39:24;101.33;;;49.93;;
4049;SDS011;2039;50.894;6.888;2022-08-18T02:41:49;101.03;;;49.07;;
4049;SDS011;2039;50.894;6.888;2022-08-18T02:44:15;98.07;;;51.53;;
4049;SDS011;2039;50.894;6.888;2022-08-18T02:46:41;98.10;;;47.00;;
4049;SDS011;2039;50.894;6.888;2022-08-18T02:49:07;96.70;;;48.20;;
4049;SDS011;2039;50.894;6.888;2022-08-18T02:51:33;99.27;;;47.07;;
4049;SDS011;2039;50.894;6.888;2022-08-18T02:53:59;99.93;;;40.73;;
4049;SDS011;2039;50.894;6.888;2022-08-18T02:56:27;97.13;;;41.17;;
4049;SDS011;2039;50.894;6.888;2022-08-18T02:58:56;97.03;;;41.97;;
4049;SDS011;2039;50.894;6.888;2022-08-18T03:01:23;97.50;;;40.83;;
4049;SDS011;2039;50.894;6.888;2022-08-18T03:03:50;100.07;;;39.37;;
4049;SDS011;2039;50.894;6.888;2022-08-18T03:06:17;92.07;;;36.20;;
4049;SDS011;2039;50.894;6.888;2022-08-18T03:08:43;97.60;;;41.47;;
4049;SDS011;2039;50.894;6.888;2022-08-18T03:11:18;95.10;;;37.17;;
4049;SDS011;2039;50.894;6.888;2022-08-18T03:13:45;96.57;;;42.57;;
4049;SDS011;2039;50.894;6.888;2022-08-18T03:16:11;97.03;;;41.00;;
4049;SDS011;2039;50.894;6.888;2022-08-18T03:18:37;99.43;;;40.50;;
4049;SDS011;2039;50.894;6.888;2022-08-18T03:21:09;95.80;;;38.83;;
4049;SDS011;2039;50.894;6.888;2022-08-18T03:23:37;93.77;;;40.07;;
4049;SDS011;2039;50.894;6.888;2022-08-18T03:26:05;94.07;;;45.57;;
4049;SDS011;2039;50.894;6.888;2022-08-18T03:28:36;97.57;;;45.00;;
4049;SDS011;2039;50.894;6.888;2022-08-18T03:31:05;97.33;;;44.47;;
4049;SDS011;2039;50.894;6.888;2022-08-18T03:33:31;99.10;;;48.90;;
4049;SDS011;2039;50.894;6.888;2022-08-18T03:36:04;95.83;;;44.50;;
4049;SDS011;2039;50.894;6.888;2022-08-18T03:38:31;94.80;;;38.93;;
4049;SDS011;2039;50.894;6.888;2022-08-18T03:40:57;100.37;;;45.30;;
4049;SDS011;2039;50.894;6.888;2022-08-18T03:43:23;97.37;;;44.83;;
4049;SDS011;2039;50.894;6.888;2022-08-18T03:45:49;99.70;;;45.57;;
4049;SDS011;2039;50.894;6.888;2022-08-18T03:48:14;100.93;;;42.60;;
4049;SDS011;2039;50.894;6.888;2022-08-18T03:50:40;100.77;;;44.03;;
4049;SDS011;2039;50.894;6.888;2022-08-18T03:53:06;101.23;;;45.33;;
4049;SDS011;2039;50.894;6.888;2022-08-18T03:55:32;101.23;;;39.80;;
4049;SDS011;2039;50.894;6.888;2022-08-18T03:58:00;96.93;;;38.93;;
4049;SDS011;2039;50.894;6.888;2022-08-18T04:00:29;95.70;;;36.17;;
4049;SDS011;2039;50.894;6.888;2022-08-18T04:02:56;95.77;;;37.17;;
4049;SDS011;2039;50.894;6.888;2022-08-18T04:05:25;92.10;;;34.97;;
4049;SDS011;2039;50.894;6.888;2022-08-18T04:07:52;102.57;;;41.97;;
4049;SDS011;2039;50.894;6.888;2022-08-18T04:10:18;103.57;;;43.50;;
4049;SDS011;2039;50.894;6.888;2022-08-18T04:12:44;98.23;;;41.43;;
4049;SDS011;2039;50.894;6.888;2022-08-18T04:15:10;95.93;;;37.57;;
4049;SDS011;2039;50.894;6.888;2022-08-18T04:17:36;98.10;;;39.67;;
4049;SDS011;2039;50.894;6.888;2022-08-18T04:20:02;97.43;;;38.03;;
4049;SDS011;2039;50.894;6.888;2022-08-18T04:22:28;99.37;;;37.83;;
4049;SDS011;2039;50.894;6.888;2022-08-18T04:24:57;98.07;;;39.83;;
4049;SDS011;2039;50.894;6.888;2022-08-18T04:27:25;98.50;;;39.87;;
4049;SDS011;2039;50.894;6.888;2022-08-18T04:29:52;107.17;;;42.43;;
4049;SDS011;2039;50.894;6.888;2022-08-18T04:32:20;101.57;;;42.40;;
4049;SDS011;2039;50.894;6.888;2022-08-18T04:34:47;99.27;;;38.93;;
4049;SDS011;2039;50.894;6.888;2022-08-18T04:37:16;99.57;;;38.03;;
4049;SDS011;2039;50.894;6.888;2022-08-18T04:39:43;99.47;;;38.10;;
4049;SDS011;2039;50.894;6.888;2022-08-18T04:42:09;103.40;;;38.87;;
4049;SDS011;2039;50.894;6.888;2022-08-18T04:44:35;109.97;;;41.00;;
4049;SDS011;2039;50.894;6.888;2022-08-18T04:47:04;104.70;;;36.13;;
4049;SDS011;2039;50.894;6.888;2022-08-18T04:49:33;112.37;;;41.63;;
4049;SDS011;2039;50.894;6.888;2022-08-18T04:51:59;117.77;;;44.50;;
4049;SDS011;2039;50.894;6.888;2022-08-18T04:54:43;111.93;;;41.80;;
4049;SDS011;2039;50.894;6.888;2022-08-18T04:57:14;123.50;;;44.97;;
4049;SDS011;2039;50.894;6.888;2022-08-18T04:59:42;116.67;;;44.97;;
4049;SDS011;2039;50.894;6.888;2022-08-18T05:02:09;110.90;;;45.07;;
4049;SDS011;2039;50.894;6.888;2022-08-18T05:04:36;114.10;;;46.77;;
4049;SDS011;2039;50.894;6.888;2022-08-18T05:07:04;112.43;;;47.37;;
4049;SDS011;2039;50.894;6.888;2022-08-18T05:09:31;122.57;;;50.07;;
4049;SDS011;2039;50.894;6.888;2022-08-18T05:11:58;115.83;;;43.80;;
4049;SDS011;2039;50.894;6.888;2022-08-18T05:14:25;110.43;;;42.00;;
4049;SDS011;2039;50.894;6.888;2022-08-18T05:16:51;114.00;;;46.77;;
4049;SDS011;2039;50.894;6.888;2022-08-18T05:19:18;110.77;;;46.83;;
4049;SDS011;2039;50.894;6.888;2022-08-18T05:21:47;112.30;;;48.33;;
4049;SDS011;2039;50.894;6.888;2022-08-18T05:24:15;114.10;;;49.80;;
4049;SDS011;2039;50.894;6.888;2022-08-18T05:26:41;106.93;;;45.27;;
4049;SDS011;2039;50.894;6.888;2022-08-18T05:29:07;116.07;;;51.17;;
4049;SDS011;2039;50.894;6.888;2022-08-18T05:31:32;117.87;;;52.63;;
4049;SDS011;2039;50.894;6.888;2022-08-18T05:33:58;117.43;;;56.23;;
4049;SDS011;2039;50.894;6.888;2022-08-18T05:36:41;122.73;;;59.87;;
4049;SDS011;2039;50.894;6.888;2022-08-18T05:42:13;122.87;;;62.37;;
4049;SDS011;2039;50.894;6.888;2022-08-18T05:44:45;123.93;;;61.20;;
4049;SDS011;2039;50.894;6.888;2022-08-18T05:47:16;125.33;;;70.20;;
4049;SDS011;2039;50.894;6.888;2022-08-18T05:49:45;123.13;;;68.03;;
4049;SDS011;2039;50.894;6.888;2022-08-18T05:55:05;125.60;;;72.40;;
4049;SDS011;2039;50.894;6.888;2022-08-18T05:58:15;132.03;;;81.40;;
4049;SDS011;2039;50.894;6.888;2022-08-18T06:00:50;125.47;;;77.40;;
4049;SDS011;2039;50.894;6.888;2022-08-18T06:03:23;130.13;;;88.33;;
4049;SDS011;2039;50.894;6.888;2022-08-18T06:08:30;145.70;;;106.57;;
4049;SDS011;2039;50.894;6.888;2022-08-18T06:11:02;144.50;;;100.60;;
4049;SDS011;2039;50.894;6.888;2022-08-18T06:13:28;148.80;;;108.83;;
4049;SDS011;2039;50.894;6.888;2022-08-18T06:16:04;155.47;;;109.10;;
4049;SDS011;2039;50.894;6.888;2022-08-18T06:19:15;147.97;;;106.20;;
4049;SDS011;2039;50.894;6.888;2022-08-18T06:30:08;149.70;;;106.77;;
4049;SDS011;2039;50.894;6.888;2022-08-18T06:38:04;130.43;;;66.83;;
4049;SDS011;2039;50.894;6.888;2022-08-18T06:41:08;141.97;;;90.73;;
4049;SDS011;2039;50.894;6.888;2022-08-18T06:43:38;150.10;;;103.27;;
4049;SDS011;2039;50.894;6.888;2022-08-18T06:46:16;146.00;;;111.90;;
4049;SDS011;2039;50.894;6.888;2022-08-18T06:48:52;160.03;;;129.93;;
4049;SDS011;2039;50.894;6.888;2022-08-18T06:51:21;153.47;;;127.00;;
4049;SDS011;2039;50.894;6.888;2022-08-18T06:53:52;136.33;;;91.63;;
4049;SDS011;2039;50.894;6.888;2022-08-18T06:56:34;135.07;;;88.83;;
4049;SDS011;2039;50.894;6.888;2022-08-18T07:02:19;124.03;;;69.23;;
4049;SDS011;2039;50.894;6.888;2022-08-18T07:05:06;127.00;;;62.07;;
4049;SDS011;2039;50.894;6.888;2022-08-18T07:07:39;113.53;;;54.87;;
4049;SDS011;2039;50.894;6.888;2022-08-18T07:15:39;138.03;;;91.37;;
4049;SDS011;2039;50.894;6.888;2022-08-18T07:18:06;127.30;;;92.03;;
4049;SDS011;2039;50.894;6.888;2022-08-18T07:20:53;126.17;;;77.80;;
4049;SDS011;2039;50.894;6.888;2022-08-18T07:23:37;134.87;;;82.10;;
4049;SDS011;2039;50.894;6.888;2022-08-18T07:28:35;122.43;;;65.30;;
4049;SDS011;2039;50.894;6.888;2022-08-18T07:31:51;121.37;;;62.10;;
4049;SDS011;2039;50.894;6.888;2022-08-18T07:34:28;118.33;;;60.57;;
4049;SDS011;2039;50.894;6.888;2022-08-18T07:40:02;111.77;;;45.80;;
4049;SDS011;2039;50.894;6.888;2022-08-18T07:42:41;110.37;;;51.07;;
4049;SDS011;2039;50.894;6.888;2022-08-18T07:45:46;116.40;;;60.53;;
4049;SDS011;2039;50.894;6.888;2022-08-18T07:48:16;118.77;;;53.30;;
4049;SDS011;2039;50.894;6.888;2022-08-18T07:55:47;112.03;;;43.70;;
4049;SDS011;2039;50.894;6.888;2022-08-18T08:03:43;104.37;;;37.13;;
4049;SDS011;2039;50.894;6.888;2022-08-18T08:09:23;97.50;;;30.00;;
4049;SDS011;2039;50.894;6.888;2022-08-18T08:12:16;102.47;;;32.90;;
4049;SDS011;2039;50.894;6.888;2022-08-18T08:15:06;104.23;;;33.53;;
4049;SDS011;2039;50.894;6.888;2022-08-18T08:23:27;100.53;;;34.67;;
4049;SDS011;2039;50.894;6.888;2022-08-18T08:26:09;95.60;;;30.77;;
4049;SDS011;2039;50.894;6.888;2022-08-18T08:34:34;94.80;;;31.40;;
4049;SDS011;2039;50.894;6.888;2022-08-18T08:38:07;99.77;;;34.97;;
4049;SDS011;2039;50.894;6.888;2022-08-18T08:40:23;100.23;;;34.53;;
4049;SDS011;2039;50.894;6.888;2022-08-18T08:45:23;103.03;;;35.77;;
4049;SDS011;2039;50.894;6.888;2022-08-18T08:50:33;97.07;;;32.83;;
4049;SDS011;2039;50.894;6.888;2022-08-18T08:55:58;100.27;;;29.93;;
4049;SDS011;2039;50.894;6.888;2022-08-18T09:01:00;94.87;;;29.23;;
4049;SDS011;2039;50.894;6.888;2022-08-18T09:25:09;94.77;;;25.20;;
4049;SDS011;2039;50.894;6.888;2022-08-18T09:28:05;89.27;;;22.00;;
4049;SDS011;2039;50.894;6.888;2022-08-18T09:38:53;88.90;;;21.10;;
4049;SDS011;2039;50.894;6.888;2022-08-18T09:41:50;99.00;;;26.60;;
4049;SDS011;2039;50.894;6.888;2022-08-18T09:47:05;93.90;;;23.97;;
4049;SDS011;2039;50.894;6.888;2022-08-18T09:49:46;95.03;;;24.77;;
4049;SDS011;2039;50.894;6.888;2022-08-18T09:54:51;91.30;;;22.27;;
4049;SDS011;2039;50.894;6.888;2022-08-18T09:57:35;93.80;;;24.30;;
4049;SDS011;2039;50.894;6.888;2022-08-18T10:07:47;95.17;;;21.57;;
4049;SDS011;2039;50.894;6.888;2022-08-18T10:10:23;90.63;;;22.13;;
4049;SDS011;2039;50.894;6.888;2022-08-18T10:13:23;92.47;;;23.43;;
4049;SDS011;2039;50.894;6.888;2022-08-18T10:24:40;93.07;;;24.50;;
4049;SDS011;2039;50.894;6.888;2022-08-18T10:33:02;90.73;;;23.80;;
4049;SDS011;2039;50.894;6.888;2022-08-18T10:38:02;90.77;;;22.33;;
4049;SDS011;2039;50.894;6.888;2022-08-18T10:40:30;87.30;;;21.13;;
4049;SDS011;2039;50.894;6.888;2022-08-18T10:45:47;87.57;;;19.60;;
4049;SDS011;2039;50.894;6.888;2022-08-18T10:48:23;90.47;;;21.60;;
4049;SDS011;2039;50.894;6.888;2022-08-18T10:56:41;85.40;;;18.80;;
4049;SDS011;2039;50.894;6.888;2022-08-18T10:59:27;83.20;;;18.27;;
4049;SDS011;2039;50.894;6.888;2022-08-18T11:05:06;87.00;;;19.17;;
4049;SDS011;2039;50.894;6.888;2022-08-18T11:07:36;84.60;;;17.77;;
4049;SDS011;2039;50.894;6.888;2022-08-18T11:10:17;86.07;;;18.93;;
4049;SDS011;2039;50.894;6.888;2022-08-18T11:21:39;90.97;;;19.43;;
4049;SDS011;2039;50.894;6.888;2022-08-18T11:24:18;90.80;;;20.03;;
4049;SDS011;2039;50.894;6.888;2022-08-18T11:26:56;93.10;;;22.40;;
4049;SDS011;2039;50.894;6.888;2022-08-18T11:31:57;96.00;;;23.53;;
4049;SDS011;2039;50.894;6.888;2022-08-18T11:37:05;91.60;;;25.40;;
4049;SDS011;2039;50.894;6.888;2022-08-18T11:39:53;99.17;;;29.50;;
4049;SDS011;2039;50.894;6.888;2022-08-18T11:42:31;97.30;;;26.77;;
4049;SDS011;2039;50.894;6.888;2022-08-18T11:45:11;94.63;;;26.93;;
4049;SDS011;2039;50.894;6.888;2022-08-18T11:47:58;94.50;;;28.30;;
4049;SDS011;2039;50.894;6.888;2022-08-18T11:50:49;89.67;;;25.40;;
4049;SDS011;2039;50.894;6.888;2022-08-18T12:04:07;90.90;;;22.90;;
4049;SDS011;2039;50.894;6.888;2022-08-18T12:06:38;98.20;;;24.97;;
4049;SDS011;2039;50.894;6.888;2022-08-18T12:12:21;88.73;;;22.60;;
4049;SDS011;2039;50.894;6.888;2022-08-18T12:15:02;89.07;;;23.00;;
4049;SDS011;2039;50.894;6.888;2022-08-18T12:17:29;86.47;;;22.00;;
4049;SDS011;2039;50.894;6.888;2022-08-18T12:19:55;94.83;;;22.13;;
4049;SDS011;2039;50.894;6.888;2022-08-18T12:22:29;96.03;;;24.40;;
4049;SDS011;2039;50.894;6.888;2022-08-18T12:24:58;89.90;;;25.17;;
4049;SDS011;2039;50.894;6.888;2022-08-18T12:27:26;92.30;;;25.50;;
4049;SDS011;2039;50.894;6.888;2022-08-18T12:29:53;84.10;;;19.47;;
4049;SDS011;2039;50.894;6.888;2022-08-18T12:32:21;93.17;;;22.27;;
4049;SDS011;2039;50.894;6.888;2022-08-18T12:34:48;88.23;;;21.53;;
4049;SDS011;2039;50.894;6.888;2022-08-18T12:37:15;87.17;;;20.90;;
4049;SDS011;2039;50.894;6.888;2022-08-18T12:39:42;88.23;;;21.40;;
4049;SDS011;2039;50.894;6.888;2022-08-18T12:42:08;84.97;;;19.07;;
4049;SDS011;2039;50.894;6.888;2022-08-18T12:44:35;88.17;;;17.80;;
4049;SDS011;2039;50.894;6.888;2022-08-18T12:47:02;82.30;;;17.60;;
4049;SDS011;2039;50.894;6.888;2022-08-18T12:49:34;83.90;;;18.13;;
4049;SDS011;2039;50.894;6.888;2022-08-18T12:52:00;83.63;;;18.30;;
4049;SDS011;2039;50.894;6.888;2022-08-18T12:54:26;86.50;;;16.93;;
4049;SDS011;2039;50.894;6.888;2022-08-18T12:56:52;86.97;;;19.00;;
4049;SDS011;2039;50.894;6.888;2022-08-18T12:59:20;92.30;;;23.63;;
4049;SDS011;2039;50.894;6.888;2022-08-18T13:01:46;86.03;;;20.60;;
4049;SDS011;2039;50.894;6.888;2022-08-18T13:04:12;88.87;;;21.57;;
4049;SDS011;2039;50.894;6.888;2022-08-18T13:06:38;90.50;;;24.00;;
4049;SDS011;2039;50.894;6.888;2022-08-18T13:09:08;91.40;;;22.70;;
4049;SDS011;2039;50.894;6.888;2022-08-18T13:11:34;88.50;;;23.67;;
4049;SDS011;2039;50.894;6.888;2022-08-18T13:14:00;87.83;;;21.53;;
4049;SDS011;2039;50.894;6.888;2022-08-18T13:16:25;86.50;;;20.47;;
4049;SDS011;2039;50.894;6.888;2022-08-18T13:18:55;85.67;;;20.33;;
4049;SDS011;2039;50.894;6.888;2022-08-18T13:21:21;85.70;;;20.00;;
4049;SDS011;2039;50.894;6.888;2022-08-18T13:23:46;87.63;;;19.70;;
4049;SDS011;2039;50.894;6.888;2022-08-18T13:26:16;85.80;;;20.20;;
4049;SDS011;2039;50.894;6.888;2022-08-18T13:28:52;85.40;;;19.90;;
4049;SDS011;2039;50.894;6.888;2022-08-18T13:31:17;84.23;;;16.67;;
4049;SDS011;2039;50.894;6.888;2022-08-18T13:33:44;80.37;;;16.03;;
4049;SDS011;2039;50.894;6.888;2022-08-18T13:36:10;81.73;;;17.40;;
4049;SDS011;2039;50.894;6.888;2022-08-18T13:38:36;83.77;;;18.07;;
4049;SDS011;2039;50.894;6.888;2022-08-18T13:41:02;83.07;;;18.00;;
4049;SDS011;2039;50.894;6.888;2022-08-18T13:43:36;80.20;;;15.20;;
4049;SDS011;2039;50.894;6.888;2022-08-18T13:46:06;77.27;;;14.53;;
4049;SDS011;2039;50.894;6.888;2022-08-18T13:48:32;76.40;;;12.80;;
4049;SDS011;2039;50.894;6.888;2022-08-18T13:50:58;76.20;;;12.73;;
4049;SDS011;2039;50.894;6.888;2022-08-18T13:53:25;75.20;;;12.00;;
4049;SDS011;2039;50.894;6.888;2022-08-18T13:55:52;74.10;;;11.00;;
4049;SDS011;2039;50.894;6.888;2022-08-18T13:58:21;72.90;;;9.50;;
4049;SDS011;2039;50.894;6.888;2022-08-18T14:00:48;73.10;;;10.43;;
4049;SDS011;2039;50.894;6.888;2022-08-18T14:03:17;74.90;;;13.10;;
4049;SDS011;2039;50.894;6.888;2022-08-18T14:05:48;76.20;;;12.03;;
4049;SDS011;2039;50.894;6.888;2022-08-18T14:08:14;74.17;;;12.20;;
4049;SDS011;2039;50.894;6.888;2022-08-18T14:10:40;73.93;;;12.00;;
4049;SDS011;2039;50.894;6.888;2022-08-18T14:13:06;73.37;;;10.90;;
4049;SDS011;2039;50.894;6.888;2022-08-18T14:15:33;73.17;;;11.37;;
4049;SDS011;2039;50.894;6.888;2022-08-18T14:18:03;73.40;;;11.50;;
4049;SDS011;2039;50.894;6.888;2022-08-18T14:20:29;74.37;;;11.63;;
4049;SDS011;2039;50.894;6.888;2022-08-18T14:23:15;72.17;;;11.83;;
4049;SDS011;2039;50.894;6.888;2022-08-18T14:25:59;72.07;;;10.60;;
4049;SDS011;2039;50.894;6.888;2022-08-18T14:28:43;73.70;;;11.60;;
4049;SDS011;2039;50.894;6.888;2022-08-18T14:31:09;73.80;;;12.00;;
4049;SDS011;2039;50.894;6.888;2022-08-18T14:33:36;74.53;;;12.20;;
4049;SDS011;2039;50.894;6.888;2022-08-18T14:36:02;73.10;;;12.30;;
4049;SDS011;2039;50.894;6.888;2022-08-18T14:38:30;71.43;;;10.93;;
4049;SDS011;2039;50.894;6.888;2022-08-18T14:40:57;72.17;;;10.80;;
4049;SDS011;2039;50.894;6.888;2022-08-18T14:43:27;71.67;;;10.60;;
4049;SDS011;2039;50.894;6.888;2022-08-18T14:45:52;71.70;;;9.77;;
4049;SDS011;2039;50.894;6.888;2022-08-18T14:48:19;72.97;;;9.60;;
4049;SDS011;2039;50.894;6.888;2022-08-18T14:50:47;75.17;;;9.07;;
4049;SDS011;2039;50.894;6.888;2022-08-18T14:53:17;71.80;;;8.57;;
4049;SDS011;2039;50.894;6.888;2022-08-18T14:55:47;70.77;;;9.37;;
4049;SDS011;2039;50.894;6.888;2022-08-18T14:58:20;71.17;;;8.97;;
4049;SDS011;2039;50.894;6.888;2022-08-18T15:00:50;72.60;;;9.20;;
4049;SDS011;2039;50.894;6.888;2022-08-18T15:03:16;73.60;;;8.23;;
4049;SDS011;2039;50.894;6.888;2022-08-18T15:05:42;74.90;;;7.80;;
4049;SDS011;2039;50.894;6.888;2022-08-18T15:08:07;74.10;;;9.30;;
4049;SDS011;2039;50.894;6.888;2022-08-18T15:10:34;70.47;;;7.90;;
4049;SDS011;2039;50.894;6.888;2022-08-18T15:13:01;70.70;;;7.73;;
4049;SDS011;2039;50.894;6.888;2022-08-18T15:15:27;70.33;;;6.80;;
4049;SDS011;2039;50.894;6.888;2022-08-18T15:17:54;70.80;;;6.90;;
4049;SDS011;2039;50.894;6.888;2022-08-18T15:20:21;72.37;;;8.17;;
4049;SDS011;2039;50.894;6.888;2022-08-18T15:22:49;69.47;;;6.43;;
4049;SDS011;2039;50.894;6.888;2022-08-18T15:25:33;69.43;;;6.67;;
4049;SDS011;2039;50.894;6.888;2022-08-18T15:28:13;71.00;;;7.17;;
4049;SDS011;2039;50.894;6.888;2022-08-18T15:30:44;72.50;;;7.33;;
4049;SDS011;2039;50.894;6.888;2022-08-18T15:33:11;73.10;;;8.40;;
4049;SDS011;2039;50.894;6.888;2022-08-18T15:35:41;74.70;;;7.80;;
4049;SDS011;2039;50.894;6.888;2022-08-18T15:38:08;72.00;;;7.00;;
4049;SDS011;2039;50.894;6.888;2022-08-18T15:40:37;71.23;;;7.23;;
4049;SDS011;2039;50.894;6.888;2022-08-18T15:43:10;70.03;;;7.00;;
4049;SDS011;2039;50.894;6.888;2022-08-18T15:45:38;73.80;;;7.73;;
4049;SDS011;2039;50.894;6.888;2022-08-18T15:48:07;73.00;;;7.63;;
4049;SDS011;2039;50.894;6.888;2022-08-18T15:50:33;70.87;;;7.80;;
4049;SDS011;2039;50.894;6.888;2022-08-18T15:53:03;71.20;;;8.50;;
4049;SDS011;2039;50.894;6.888;2022-08-18T15:55:30;74.60;;;10.47;;
4049;SDS011;2039;50.894;6.888;2022-08-18T15:57:57;71.77;;;9.10;;
4049;SDS011;2039;50.894;6.888;2022-08-18T16:00:24;73.50;;;9.77;;
4049;SDS011;2039;50.894;6.888;2022-08-18T16:02:55;72.33;;;9.80;;
4049;SDS011;2039;50.894;6.888;2022-08-18T16:05:30;72.77;;;10.40;;
4049;SDS011;2039;50.894;6.888;2022-08-18T16:07:57;74.23;;;9.53;;
4049;SDS011;2039;50.894;6.888;2022-08-18T16:10:24;78.20;;;10.30;;
4049;SDS011;2039;50.894;6.888;2022-08-18T16:12:52;74.57;;;11.30;;
4049;SDS011;2039;50.894;6.888;2022-08-18T16:15:19;73.50;;;10.37;;
4049;SDS011;2039;50.894;6.888;2022-08-18T16:17:46;74.20;;;10.87;;
4049;SDS011;2039;50.894;6.888;2022-08-18T16:20:13;77.43;;;11.80;;
4049;SDS011;2039;50.894;6.888;2022-08-18T16:22:39;76.40;;;11.73;;
4049;SDS011;2039;50.894;6.888;2022-08-18T16:25:06;77.10;;;12.23;;
4049;SDS011;2039;50.894;6.888;2022-08-18T16:27:36;75.20;;;12.13;;
4049;SDS011;2039;50.894;6.888;2022-08-18T16:30:06;74.60;;;11.87;;
4049;SDS011;2039;50.894;6.888;2022-08-18T16:32:36;74.97;;;10.90;;
4049;SDS011;2039;50.894;6.888;2022-08-18T16:35:02;78.63;;;12.87;;
4049;SDS011;2039;50.894;6.888;2022-08-18T16:37:29;76.77;;;10.97;;
4049;SDS011;2039;50.894;6.888;2022-08-18T16:39:54;75.50;;;11.20;;
4049;SDS011;2039;50.894;6.888;2022-08-18T16:42:20;73.17;;;10.80;;
4049;SDS011;2039;50.894;6.888;2022-08-18T16:44:46;74.00;;;12.40;;
4049;SDS011;2039;50.894;6.888;2022-08-18T16:47:15;73.77;;;10.47;;
4049;SDS011;2039;50.894;6.888;2022-08-18T16:49:44;72.97;;;10.30;;
4049;SDS011;2039;50.894;6.888;2022-08-18T16:52:12;77.83;;;11.70;;
4049;SDS011;2039;50.894;6.888;2022-08-18T16:54:39;73.57;;;10.50;;
4049;SDS011;2039;50.894;6.888;2022-08-18T16:57:06;74.47;;;10.57;;
4049;SDS011;2039;50.894;6.888;2022-08-18T16:59:31;74.10;;;9.60;;
4049;SDS011;2039;50.894;6.888;2022-08-18T17:02:16;72.60;;;9.47;;
4049;SDS011;2039;50.894;6.888;2022-08-18T17:05:00;74.60;;;9.30;;
4049;SDS011;2039;50.894;6.888;2022-08-18T17:07:32;72.20;;;8.27;;
4049;SDS011;2039;50.894;6.888;2022-08-18T17:09:59;72.27;;;8.80;;
4049;SDS011;2039;50.894;6.888;2022-08-18T17:12:26;72.10;;;7.97;;
4049;SDS011;2039;50.894;6.888;2022-08-18T17:14:52;71.60;;;7.70;;
4049;SDS011;2039;50.894;6.888;2022-08-18T17:17:19;73.60;;;8.43;;
4049;SDS011;2039;50.894;6.888;2022-08-18T17:19:46;71.07;;;8.10;;
4049;SDS011;2039;50.894;6.888;2022-08-18T17:22:12;73.47;;;8.27;;
4049;SDS011;2039;50.894;6.888;2022-08-18T17:24:39;72.17;;;8.63;;
4049;SDS011;2039;50.894;6.888;2022-08-18T17:32:27;73.73;;;7.67;;
4049;SDS011;2039;50.894;6.888;2022-08-18T17:35:06;73.93;;;7.57;;
4049;SDS011;2039;50.894;6.888;2022-08-18T17:37:33;72.03;;;8.27;;
4049;SDS011;2039;50.894;6.888;2022-08-18T17:40:07;70.57;;;7.43;;
4049;SDS011;2039;50.894;6.888;2022-08-18T17:42:39;71.20;;;7.53;;
4049;SDS011;2039;50.894;6.888;2022-08-18T17:45:09;71.80;;;8.00;;
4049;SDS011;2039;50.894;6.888;2022-08-18T17:50:41;71.47;;;8.10;;
4049;SDS011;2039;50.894;6.888;2022-08-18T17:53:36;70.77;;;7.67;;
4049;SDS011;2039;50.894;6.888;2022-08-18T17:56:06;76.00;;;9.03;;
4049;SDS011;2039;50.894;6.888;2022-08-18T17:58:55;71.17;;;9.87;;
4049;SDS011;2039;50.894;6.888;2022-08-18T18:01:28;69.50;;;8.93;;
4049;SDS011;2039;50.894;6.888;2022-08-18T18:03:55;70.43;;;8.40;;
4049;SDS011;2039;50.894;6.888;2022-08-18T18:11:56;70.07;;;8.40;;
4049;SDS011;2039;50.894;6.888;2022-08-18T18:14:46;70.47;;;8.30;;
4049;SDS011;2039;50.894;6.888;2022-08-18T18:22:38;70.63;;;7.30;;
4049;SDS011;2039;50.894;6.888;2022-08-18T18:25:07;72.30;;;8.20;;
4049;SDS011;2039;50.894;6.888;2022-08-18T18:30:22;68.93;;;7.20;;